Seabulk Arctic — WCY7054 — position and weather

sailwx.info

Track history (hours):
 
Tides and Currents Weather Stations Pressure Air Temp Water Temp Dewpoint Dewpoint Depression Visibility Wind Speed Wind Dir Waves Ship Positions

Seabulk Arctic

Owner: LIGHTSHIP TANKERS IV LLC, FORT LAUDERDALE, FL. More information available from US FCC via Universal Licensing System and Coast Guard Vessel Documentation Center.

Last reported at 2018-Feb-21 19:15 UTC. Time now 2018-Feb-22 09:05 UTC.
Position N 30°11' W 093°19'.

Type: Tanker. MMSI: 366826000.

Date/timePositionNaut miles runAvg speedWind from/ knotsBaromVisibWave heightAir tempDewpointWater temp
2018-Feb-21 19:15N 30°11' W 093°19'0 0.0
2018-Feb-21 19:00N 30°11' W 093°19'0 0.0
2018-Feb-21 18:27N 30°11' W 093°19'0 0.0
2018-Feb-21 18:00N 30°11' W 093°19'0 0.0
2018-Feb-21 17:30N 30°11' W 093°19'0 0.0
2018-Feb-21 17:00N 30°11' W 093°19'0 0.0
2018-Feb-21 16:30N 30°11' W 093°19'0 0.0
2018-Feb-21 16:00N 30°11' W 093°19'0 0.0
2018-Feb-21 15:30N 30°11' W 093°19'0 0.0
2018-Feb-21 15:00N 30°11' W 093°19'0 0.0
2018-Feb-21 14:30N 30°11' W 093°19'0 0.0
2018-Feb-21 14:00N 30°11' W 093°19'0 0.0
2018-Feb-21 13:30N 30°11' W 093°19'0 0.0
2018-Feb-21 13:00N 30°11' W 093°19'0 0.0
2018-Feb-21 12:30N 30°11' W 093°19'0 0.0
2018-Feb-21 12:00N 30°11' W 093°19'0 0.0
2018-Feb-21 11:30N 30°11' W 093°19'0 0.0
2018-Feb-21 11:00N 30°11' W 093°19'0 0.0
2018-Feb-21 10:30N 30°11' W 093°19'0 0.0
2018-Feb-21 09:57N 30°11' W 093°19'0 0.0
2018-Feb-21 09:30N 30°11' W 093°19'0 0.0
2018-Feb-21 09:00N 30°11' W 093°19'0 0.0
2018-Feb-21 08:30N 30°11' W 093°19'0 0.0
2018-Feb-21 07:54N 30°11' W 093°19'0 0.0
2018-Feb-21 07:30N 30°11' W 093°19'0 0.0
2018-Feb-21 07:00N 30°11' W 093°19'0 0.0
2018-Feb-21 06:30N 30°11' W 093°19'0 0.0
2018-Feb-21 06:00N 30°11' W 093°19'0 0.0
2018-Feb-21 05:30N 30°11' W 093°19'0 0.0
2018-Feb-21 05:00N 30°11' W 093°19'0 0.0
2018-Feb-21 04:30N 30°11' W 093°19'0 0.0
2018-Feb-21 04:00N 30°11' W 093°19'0 0.0
2018-Feb-21 03:30N 30°11' W 093°19'0 0.0
2018-Feb-21 03:00N 30°11' W 093°19'0 0.0
2018-Feb-21 02:30N 30°11' W 093°19'0 0.0
2018-Feb-21 02:00N 30°11' W 093°19'0 0.0
2018-Feb-21 01:30N 30°11' W 093°19'0 0.0
2018-Feb-21 01:00N 30°11' W 093°19'0 0.0
2018-Feb-21 00:30N 30°11' W 093°19'0 0.0
2018-Feb-21 00:00N 30°11' W 093°19'0 0.0
2018-Feb-20 23:30N 30°11' W 093°19'0 0.0
2018-Feb-20 23:00N 30°11' W 093°19'1 1.1
2018-Feb-20 22:30N 30°11' W 093°19'2 3.5
2018-Feb-20 22:00N 30°09' W 093°20'3 5.4
2018-Feb-20 21:30N 30°07' W 093°20'3 5.7
2018-Feb-20 21:00N 30°04' W 093°20'4 7.5
2018-Feb-20 20:30N 30°00' W 093°20'3 6.8
2018-Feb-20 20:00N 29°57' W 093°20'4 8.6
2018-Feb-20 19:30N 29°53' W 093°21'4 8.7
2018-Feb-20 19:00N 29°48' W 093°21'4 8.1
2018-Feb-20 18:29N 29°44' W 093°20'8 1.0
2018-Feb-20 10:01N 29°37' W 093°16'0 0.0
2018-Feb-20 09:38N 29°37' W 093°16'0 0.0
2018-Feb-20 09:11N 29°37' W 093°16'0 0.0
2018-Feb-20 08:55N 29°37' W 093°16'0 0.0
2018-Feb-20 08:28N 29°37' W 093°16'0 0.0
2018-Feb-20 07:54N 29°37' W 093°16'0 0.0
2018-Feb-20 07:09N 29°37' W 093°16'0 0.0
2018-Feb-20 06:06N 29°37' W 093°16'0 0.0
2018-Feb-20 05:57N 29°37' W 093°16'0 0.0
2018-Feb-20 05:21N 29°37' W 093°16'43812.4
2018-Feb-18 18:00N 26°18' W 085°54'16513.7 1022.010.8 26.7
2018-Feb-18 06:00N 24°30' W 083°36'15312.7 070 / 121021.010.8 23.320.1
2018-Feb-17 18:00N 24°36' W 080°48'6011.6 130 / 81022.010.8 25.621.6
2018-Feb-17 12:48N 25°20' W 080°03'511.3
2018-Feb-17 12:22N 25°25' W 080°01'411.6
2018-Feb-17 12:00N 25°29' W 079°60'611.6
2018-Feb-17 11:30N 25°35' W 079°59'612.1
2018-Feb-17 11:00N 25°41' W 079°58'612.1
2018-Feb-17 10:30N 25°47' W 079°58'612.4
2018-Feb-17 10:01N 25°53' W 079°57'612.1
2018-Feb-17 09:30N 25°59' W 079°57'612.7
2018-Feb-17 09:00N 26°04' W 080°02'5 9.5
2018-Feb-17 08:31N 26°06' W 080°07'1 1.1
2018-Feb-17 08:00N 26°06' W 080°07'0 0.0
2018-Feb-17 07:28N 26°06' W 080°07'0 0.0
2018-Feb-17 06:58N 26°06' W 080°07'0 0.0
2018-Feb-17 06:28N 26°06' W 080°07'0 0.0
2018-Feb-17 05:58N 26°06' W 080°07'0 0.0
2018-Feb-17 05:28N 26°06' W 080°07'0 0.0
2018-Feb-17 04:58N 26°06' W 080°07'0 0.0
2018-Feb-17 04:28N 26°06' W 080°07'0 0.0
2018-Feb-17 03:58N 26°06' W 080°07'0 0.0
2018-Feb-17 03:28N 26°06' W 080°07'0 0.0
2018-Feb-17 02:58N 26°06' W 080°07'0 0.0
2018-Feb-17 02:28N 26°06' W 080°07'0 0.0
2018-Feb-17 01:58N 26°06' W 080°07'0 0.0
2018-Feb-17 01:28N 26°06' W 080°07'0 0.0
2018-Feb-17 00:58N 26°06' W 080°07'0 0.0
2018-Feb-17 00:28N 26°06' W 080°07'0 0.0
2018-Feb-16 23:58N 26°06' W 080°07'0 0.0
2018-Feb-16 23:28N 26°06' W 080°07'0 0.0
2018-Feb-16 22:58N 26°06' W 080°07'0 0.0
2018-Feb-16 22:28N 26°06' W 080°07'0 0.0
2018-Feb-16 21:58N 26°06' W 080°07'0 0.0
2018-Feb-16 21:28N 26°06' W 080°07'0 0.0
2018-Feb-16 20:58N 26°06' W 080°07'0 0.0
2018-Feb-16 20:28N 26°06' W 080°07'0 0.0
2018-Feb-16 19:58N 26°06' W 080°07'0 0.0
2018-Feb-16 19:28N 26°06' W 080°07'0 0.0
2018-Feb-16 18:58N 26°06' W 080°07'0 0.0
2018-Feb-16 18:28N 26°06' W 080°07'0 0.0
2018-Feb-16 17:58N 26°06' W 080°07'0 0.0
2018-Feb-16 17:28N 26°06' W 080°07'0 0.0
2018-Feb-16 16:58N 26°06' W 080°07'0 0.0
2018-Feb-16 16:25N 26°06' W 080°07'0 0.0
2018-Feb-16 15:58N 26°06' W 080°07'0 0.0
2018-Feb-16 15:28N 26°06' W 080°07'0 0.0
2018-Feb-16 14:58N 26°06' W 080°07'0 0.0
2018-Feb-16 14:28N 26°06' W 080°07'0 0.0
2018-Feb-16 13:58N 26°06' W 080°07'0 0.0
2018-Feb-16 13:28N 26°06' W 080°07'0 0.0
2018-Feb-16 12:58N 26°06' W 080°07'0 0.0
2018-Feb-16 12:28N 26°06' W 080°07'0 0.0
2018-Feb-16 11:58N 26°06' W 080°07'0 0.0
2018-Feb-16 11:28N 26°06' W 080°07'0 0.0
2018-Feb-16 10:58N 26°06' W 080°07'0 0.0
2018-Feb-16 10:28N 26°06' W 080°07'0 0.0
2018-Feb-16 09:58N 26°06' W 080°07'0 0.0
2018-Feb-16 09:28N 26°06' W 080°07'0 0.0
2018-Feb-16 08:58N 26°06' W 080°07'0 0.0
2018-Feb-16 08:28N 26°06' W 080°07'0 0.0
2018-Feb-16 07:58N 26°06' W 080°07'0 0.0
2018-Feb-16 07:28N 26°06' W 080°07'0 0.0
2018-Feb-16 06:58N 26°06' W 080°07'0 0.0
2018-Feb-16 06:28N 26°06' W 080°07'0 0.0
2018-Feb-16 05:58N 26°06' W 080°07'0 0.0
2018-Feb-16 05:28N 26°06' W 080°07'0 0.0
2018-Feb-16 04:58N 26°06' W 080°07'0 0.0
2018-Feb-16 04:28N 26°06' W 080°07'0 0.0
2018-Feb-16 03:58N 26°06' W 080°07'0 0.0
2018-Feb-16 03:28N 26°06' W 080°07'0 0.0
2018-Feb-16 02:58N 26°06' W 080°07'0 0.0
2018-Feb-16 02:28N 26°06' W 080°07'0 0.0
2018-Feb-16 01:58N 26°06' W 080°07'0 0.0
2018-Feb-16 01:28N 26°06' W 080°07'0 0.0
2018-Feb-16 00:58N 26°06' W 080°07'0 0.0
2018-Feb-16 00:28N 26°06' W 080°07'0 0.0
2018-Feb-15 23:58N 26°06' W 080°07'0 0.0
2018-Feb-15 23:28N 26°06' W 080°07'0 0.0
2018-Feb-15 22:58N 26°06' W 080°07'0 0.0
2018-Feb-15 22:28N 26°06' W 080°07'0 0.0
2018-Feb-15 21:58N 26°06' W 080°07'0 0.0
2018-Feb-15 21:28N 26°06' W 080°07'0 0.0
2018-Feb-15 20:58N 26°06' W 080°07'0 0.0
2018-Feb-15 20:28N 26°06' W 080°07'0 0.0
2018-Feb-15 19:58N 26°06' W 080°07'0 0.1
2018-Feb-15 19:30N 26°06' W 080°07'3 5.4
2018-Feb-15 19:01N 26°06' W 080°04'2 3.4
2018-Feb-15 18:31N 26°07' W 080°03'1 1.0
2018-Feb-15 18:00N 26°07' W 080°02'2 4.8
2018-Feb-15 17:30N 26°08' W 079°60'1 2.1
2018-Feb-15 17:00N 26°09' W 079°59'1 2.3
2018-Feb-15 16:30N 26°10' W 079°59'1 1.7
2018-Feb-15 16:00N 26°11' W 079°59'1 1.5
2018-Feb-15 15:30N 26°12' W 079°58'1 1.6
2018-Feb-15 15:00N 26°13' W 079°58'1 1.5
2018-Feb-15 14:30N 26°13' W 079°58'1 1.4
2018-Feb-15 14:00N 26°14' W 079°57'1 1.3
2018-Feb-15 13:30N 26°15' W 079°57'1 1.4
2018-Feb-15 13:00N 26°15' W 079°57'1 1.2
2018-Feb-15 12:30N 26°16' W 079°57'2 3.4
2018-Feb-15 11:58N 26°14' W 079°56'3 7.1
2018-Feb-15 11:30N 26°11' W 079°56'4 7.2
2018-Feb-15 11:00N 26°07' W 079°55'4 7.3
2018-Feb-15 10:30N 26°04' W 079°56'610.9
2018-Feb-15 10:00N 25°58' W 079°56'816.4
2018-Feb-15 09:30N 25°50' W 079°56'816.4
2018-Feb-15 09:01N 25°42' W 079°57'816.3
2018-Feb-15 08:31N 25°34' W 079°58'816.3
2018-Feb-15 08:01N 25°26' W 079°59'19814.1
2018-Feb-14 18:00N 24°18' W 083°24'32513.5 070 / 181026.010.8 24.421.3
2018-Feb-13 18:00N 27°00' W 088°36'29711.8 080 / 261026.810.8 23.3
2018-Feb-12 16:48N 29°41' W 093°20'3 9.0
2018-Feb-12 16:30N 29°43' W 093°20'4 9.1
2018-Feb-12 16:01N 29°48' W 093°21'5 9.3
2018-Feb-12 15:31N 29°52' W 093°21'4 7.8
2018-Feb-12 14:59N 29°56' W 093°20'4 7.6
2018-Feb-12 14:29N 30°00' W 093°20'4 7.5
2018-Feb-12 14:01N 30°04' W 093°20'4 7.3
2018-Feb-12 13:31N 30°07' W 093°20'2 4.7
2018-Feb-12 13:01N 30°10' W 093°19'1 2.1
2018-Feb-12 12:31N 30°11' W 093°19'0 0.0
2018-Feb-12 11:56N 30°11' W 093°19'0 0.0
2018-Feb-12 11:27N 30°11' W 093°19'0 0.0
2018-Feb-12 10:56N 30°11' W 093°19'0 0.0
2018-Feb-12 10:29N 30°11' W 093°19'0 0.0
2018-Feb-12 09:50N 30°11' W 093°19'0 0.0
2018-Feb-12 09:20N 30°11' W 093°19'0 0.0
2018-Feb-12 08:38N 30°11' W 093°19'0 0.0
2018-Feb-12 08:26N 30°11' W 093°19'0 0.0
2018-Feb-12 07:44N 30°11' W 093°19'0 0.0
2018-Feb-12 07:26N 30°11' W 093°19'0 0.0
2018-Feb-12 06:56N 30°11' W 093°19'0 0.0
2018-Feb-12 06:14N 30°11' W 093°19'0 0.0
2018-Feb-12 05:47N 30°11' W 093°19'0 0.0
2018-Feb-12 05:29N 30°11' W 093°19'0 0.0
2018-Feb-12 04:50N 30°11' W 093°19'0 0.0
2018-Feb-12 04:26N 30°11' W 093°19'0 0.0
2018-Feb-12 03:56N 30°11' W 093°19'0 0.0
2018-Feb-12 03:26N 30°11' W 093°19'0 0.0
2018-Feb-12 02:56N 30°11' W 093°19'0 0.0
2018-Feb-12 02:26N 30°11' W 093°19'0 0.0
2018-Feb-12 01:50N 30°11' W 093°19'0 0.0
2018-Feb-12 01:29N 30°11' W 093°19'0 0.0
2018-Feb-12 00:59N 30°11' W 093°19'0 0.0
2018-Feb-12 00:29N 30°11' W 093°19'0 0.0
2018-Feb-11 23:59N 30°11' W 093°19'0 0.0
2018-Feb-11 23:29N 30°11' W 093°19'0 0.0
2018-Feb-11 22:59N 30°11' W 093°19'0 0.0
2018-Feb-11 22:29N 30°11' W 093°19'0 0.0
2018-Feb-11 21:53N 30°11' W 093°19'0 0.0
2018-Feb-11 21:20N 30°11' W 093°19'0 0.0
2018-Feb-11 20:50N 30°11' W 093°19'0 0.0
2018-Feb-11 20:23N 30°11' W 093°19'0 0.0
2018-Feb-11 19:56N 30°11' W 093°19'0 0.0
2018-Feb-11 19:26N 30°11' W 093°19'  
Track history (hours):
 
Tides and Currents Weather Stations Pressure Air Temp Water Temp Dewpoint Dewpoint Depression Visibility Wind Speed Wind Dir Waves Ship Positions

Seabulk Arctic

Owner: LIGHTSHIP TANKERS IV LLC, FORT LAUDERDALE, FL. More information available from US FCC via Universal Licensing System and Coast Guard Vessel Documentation Center.

Last reported at 2018-Feb-21 19:15 UTC. Time now 2018-Feb-22 09:05 UTC.
Position N 30°11' W 093°19'.

Type: Tanker. MMSI: 366826000.

Date/timePositionNaut miles runAvg speedWind from/ knotsBaromVisibWave heightAir tempDewpointWater temp
2018-Feb-21 19:15N 30°11' W 093°19'0 0.0
2018-Feb-21 19:00N 30°11' W 093°19'0 0.0
2018-Feb-21 18:27N 30°11' W 093°19'0 0.0
2018-Feb-21 18:00N 30°11' W 093°19'0 0.0
2018-Feb-21 17:30N 30°11' W 093°19'0 0.0
2018-Feb-21 17:00N 30°11' W 093°19'0 0.0
2018-Feb-21 16:30N 30°11' W 093°19'0 0.0
2018-Feb-21 16:00N 30°11' W 093°19'0 0.0
2018-Feb-21 15:30N 30°11' W 093°19'0 0.0
2018-Feb-21 15:00N 30°11' W 093°19'0 0.0
2018-Feb-21 14:30N 30°11' W 093°19'0 0.0
2018-Feb-21 14:00N 30°11' W 093°19'0 0.0
2018-Feb-21 13:30N 30°11' W 093°19'0 0.0
2018-Feb-21 13:00N 30°11' W 093°19'0 0.0
2018-Feb-21 12:30N 30°11' W 093°19'0 0.0
2018-Feb-21 12:00N 30°11' W 093°19'0 0.0
2018-Feb-21 11:30N 30°11' W 093°19'0 0.0
2018-Feb-21 11:00N 30°11' W 093°19'0 0.0
2018-Feb-21 10:30N 30°11' W 093°19'0 0.0
2018-Feb-21 09:57N 30°11' W 093°19'0 0.0
2018-Feb-21 09:30N 30°11' W 093°19'0 0.0
2018-Feb-21 09:00N 30°11' W 093°19'0 0.0
2018-Feb-21 08:30N 30°11' W 093°19'0 0.0
2018-Feb-21 07:54N 30°11' W 093°19'0 0.0
2018-Feb-21 07:30N 30°11' W 093°19'0 0.0
2018-Feb-21 07:00N 30°11' W 093°19'0 0.0
2018-Feb-21 06:30N 30°11' W 093°19'0 0.0
2018-Feb-21 06:00N 30°11' W 093°19'0 0.0
2018-Feb-21 05:30N 30°11' W 093°19'0 0.0
2018-Feb-21 05:00N 30°11' W 093°19'0 0.0
2018-Feb-21 04:30N 30°11' W 093°19'0 0.0
2018-Feb-21 04:00N 30°11' W 093°19'0 0.0
2018-Feb-21 03:30N 30°11' W 093°19'0 0.0
2018-Feb-21 03:00N 30°11' W 093°19'0 0.0
2018-Feb-21 02:30N 30°11' W 093°19'0 0.0
2018-Feb-21 02:00N 30°11' W 093°19'0 0.0
2018-Feb-21 01:30N 30°11' W 093°19'0 0.0
2018-Feb-21 01:00N 30°11' W 093°19'0 0.0
2018-Feb-21 00:30N 30°11' W 093°19'0 0.0
2018-Feb-21 00:00N 30°11' W 093°19'0 0.0
2018-Feb-20 23:30N 30°11' W 093°19'0 0.0
2018-Feb-20 23:00N 30°11' W 093°19'1 1.1
2018-Feb-20 22:30N 30°11' W 093°19'2 3.5
2018-Feb-20 22:00N 30°09' W 093°20'3 5.4
2018-Feb-20 21:30N 30°07' W 093°20'3 5.7
2018-Feb-20 21:00N 30°04' W 093°20'4 7.5
2018-Feb-20 20:30N 30°00' W 093°20'3 6.8
2018-Feb-20 20:00N 29°57' W 093°20'4 8.6
2018-Feb-20 19:30N 29°53' W 093°21'4 8.7
2018-Feb-20 19:00N 29°48' W 093°21'4 8.1
2018-Feb-20 18:29N 29°44' W 093°20'8 1.0
2018-Feb-20 10:01N 29°37' W 093°16'0 0.0
2018-Feb-20 09:38N 29°37' W 093°16'0 0.0
2018-Feb-20 09:11N 29°37' W 093°16'0 0.0
2018-Feb-20 08:55N 29°37' W 093°16'0 0.0
2018-Feb-20 08:28N 29°37' W 093°16'0 0.0
2018-Feb-20 07:54N 29°37' W 093°16'0 0.0
2018-Feb-20 07:09N 29°37' W 093°16'0 0.0
2018-Feb-20 06:06N 29°37' W 093°16'0 0.0
2018-Feb-20 05:57N 29°37' W 093°16'0 0.0
2018-Feb-20 05:21N 29°37' W 093°16'43812.4
2018-Feb-18 18:00N 26°18' W 085°54'16513.7 1022.010.8 26.7
2018-Feb-18 06:00N 24°30' W 083°36'15312.7 070 / 121021.010.8 23.320.1
2018-Feb-17 18:00N 24°36' W 080°48'6011.6 130 / 81022.010.8 25.621.6
2018-Feb-17 12:48N 25°20' W 080°03'511.3
2018-Feb-17 12:22N 25°25' W 080°01'411.6
2018-Feb-17 12:00N 25°29' W 079°60'611.6
2018-Feb-17 11:30N 25°35' W 079°59'612.1
2018-Feb-17 11:00N 25°41' W 079°58'612.1
2018-Feb-17 10:30N 25°47' W 079°58'612.4
2018-Feb-17 10:01N 25°53' W 079°57'612.1
2018-Feb-17 09:30N 25°59' W 079°57'612.7
2018-Feb-17 09:00N 26°04' W 080°02'5 9.5
2018-Feb-17 08:31N 26°06' W 080°07'1 1.1
2018-Feb-17 08:00N 26°06' W 080°07'0 0.0
2018-Feb-17 07:28N 26°06' W 080°07'0 0.0
2018-Feb-17 06:58N 26°06' W 080°07'0 0.0
2018-Feb-17 06:28N 26°06' W 080°07'0 0.0
2018-Feb-17 05:58N 26°06' W 080°07'0 0.0
2018-Feb-17 05:28N 26°06' W 080°07'0 0.0
2018-Feb-17 04:58N 26°06' W 080°07'0 0.0
2018-Feb-17 04:28N 26°06' W 080°07'0 0.0
2018-Feb-17 03:58N 26°06' W 080°07'0 0.0
2018-Feb-17 03:28N 26°06' W 080°07'0 0.0
2018-Feb-17 02:58N 26°06' W 080°07'0 0.0
2018-Feb-17 02:28N 26°06' W 080°07'0 0.0
2018-Feb-17 01:58N 26°06' W 080°07'0 0.0
2018-Feb-17 01:28N 26°06' W 080°07'0 0.0
2018-Feb-17 00:58N 26°06' W 080°07'0 0.0
2018-Feb-17 00:28N 26°06' W 080°07'0 0.0
2018-Feb-16 23:58N 26°06' W 080°07'0 0.0
2018-Feb-16 23:28N 26°06' W 080°07'0 0.0
2018-Feb-16 22:58N 26°06' W 080°07'0 0.0
2018-Feb-16 22:28N 26°06' W 080°07'0 0.0
2018-Feb-16 21:58N 26°06' W 080°07'0 0.0
2018-Feb-16 21:28N 26°06' W 080°07'0 0.0
2018-Feb-16 20:58N 26°06' W 080°07'0 0.0
2018-Feb-16 20:28N 26°06' W 080°07'0 0.0
2018-Feb-16 19:58N 26°06' W 080°07'0 0.0
2018-Feb-16 19:28N 26°06' W 080°07'0 0.0
2018-Feb-16 18:58N 26°06' W 080°07'0 0.0
2018-Feb-16 18:28N 26°06' W 080°07'0 0.0
2018-Feb-16 17:58N 26°06' W 080°07'0 0.0
2018-Feb-16 17:28N 26°06' W 080°07'0 0.0
2018-Feb-16 16:58N 26°06' W 080°07'0 0.0
2018-Feb-16 16:25N 26°06' W 080°07'0 0.0
2018-Feb-16 15:58N 26°06' W 080°07'0 0.0
2018-Feb-16 15:28N 26°06' W 080°07'0 0.0
2018-Feb-16 14:58N 26°06' W 080°07'0 0.0
2018-Feb-16 14:28N 26°06' W 080°07'0 0.0
2018-Feb-16 13:58N 26°06' W 080°07'0 0.0
2018-Feb-16 13:28N 26°06' W 080°07'0 0.0
2018-Feb-16 12:58N 26°06' W 080°07'0 0.0
2018-Feb-16 12:28N 26°06' W 080°07'0 0.0
2018-Feb-16 11:58N 26°06' W 080°07'0 0.0
2018-Feb-16 11:28N 26°06' W 080°07'0 0.0
2018-Feb-16 10:58N 26°06' W 080°07'0 0.0
2018-Feb-16 10:28N 26°06' W 080°07'0 0.0
2018-Feb-16 09:58N 26°06' W 080°07'0 0.0
2018-Feb-16 09:28N 26°06' W 080°07'0 0.0
2018-Feb-16 08:58N 26°06' W 080°07'0 0.0
2018-Feb-16 08:28N 26°06' W 080°07'0 0.0
2018-Feb-16 07:58N 26°06' W 080°07'0 0.0
2018-Feb-16 07:28N 26°06' W 080°07'0 0.0
2018-Feb-16 06:58N 26°06' W 080°07'0 0.0
2018-Feb-16 06:28N 26°06' W 080°07'0 0.0
2018-Feb-16 05:58N 26°06' W 080°07'0 0.0
2018-Feb-16 05:28N 26°06' W 080°07'0 0.0
2018-Feb-16 04:58N 26°06' W 080°07'0 0.0
2018-Feb-16 04:28N 26°06' W 080°07'0 0.0
2018-Feb-16 03:58N 26°06' W 080°07'0 0.0
2018-Feb-16 03:28N 26°06' W 080°07'0 0.0
2018-Feb-16 02:58N 26°06' W 080°07'0 0.0
2018-Feb-16 02:28N 26°06' W 080°07'0 0.0
2018-Feb-16 01:58N 26°06' W 080°07'0 0.0
2018-Feb-16 01:28N 26°06' W 080°07'0 0.0
2018-Feb-16 00:58N 26°06' W 080°07'0 0.0
2018-Feb-16 00:28N 26°06' W 080°07'0 0.0
2018-Feb-15 23:58N 26°06' W 080°07'0 0.0
2018-Feb-15 23:28N 26°06' W 080°07'0 0.0
2018-Feb-15 22:58N 26°06' W 080°07'0 0.0
2018-Feb-15 22:28N 26°06' W 080°07'0 0.0
2018-Feb-15 21:58N 26°06' W 080°07'0 0.0
2018-Feb-15 21:28N 26°06' W 080°07'0 0.0
2018-Feb-15 20:58N 26°06' W 080°07'0 0.0
2018-Feb-15 20:28N 26°06' W 080°07'0 0.0
2018-Feb-15 19:58N 26°06' W 080°07'0 0.1
2018-Feb-15 19:30N 26°06' W 080°07'3 5.4
2018-Feb-15 19:01N 26°06' W 080°04'2 3.4
2018-Feb-15 18:31N 26°07' W 080°03'1 1.0
2018-Feb-15 18:00N 26°07' W 080°02'2 4.8
2018-Feb-15 17:30N 26°08' W 079°60'1 2.1
2018-Feb-15 17:00N 26°09' W 079°59'1 2.3
2018-Feb-15 16:30N 26°10' W 079°59'1 1.7
2018-Feb-15 16:00N 26°11' W 079°59'1 1.5
2018-Feb-15 15:30N 26°12' W 079°58'1 1.6
2018-Feb-15 15:00N 26°13' W 079°58'1 1.5
2018-Feb-15 14:30N 26°13' W 079°58'1 1.4
2018-Feb-15 14:00N 26°14' W 079°57'1 1.3
2018-Feb-15 13:30N 26°15' W 079°57'1 1.4
2018-Feb-15 13:00N 26°15' W 079°57'1 1.2
2018-Feb-15 12:30N 26°16' W 079°57'2 3.4
2018-Feb-15 11:58N 26°14' W 079°56'3 7.1
2018-Feb-15 11:30N 26°11' W 079°56'4 7.2
2018-Feb-15 11:00N 26°07' W 079°55'4 7.3
2018-Feb-15 10:30N 26°04' W 079°56'610.9
2018-Feb-15 10:00N 25°58' W 079°56'816.4
2018-Feb-15 09:30N 25°50' W 079°56'816.4
2018-Feb-15 09:01N 25°42' W 079°57'816.3
2018-Feb-15 08:31N 25°34' W 079°58'816.3
2018-Feb-15 08:01N 25°26' W 079°59'19814.1
2018-Feb-14 18:00N 24°18' W 083°24'32513.5 070 / 181026.010.8 24.421.3
2018-Feb-13 18:00N 27°00' W 088°36'29711.8 080 / 261026.810.8 23.3
2018-Feb-12 16:48N 29°41' W 093°20'3 9.0
2018-Feb-12 16:30N 29°43' W 093°20'4 9.1
2018-Feb-12 16:01N 29°48' W 093°21'5 9.3
2018-Feb-12 15:31N 29°52' W 093°21'4 7.8
2018-Feb-12 14:59N 29°56' W 093°20'4 7.6
2018-Feb-12 14:29N 30°00' W 093°20'4 7.5
2018-Feb-12 14:01N 30°04' W 093°20'4 7.3
2018-Feb-12 13:31N 30°07' W 093°20'2 4.7
2018-Feb-12 13:01N 30°10' W 093°19'1 2.1
2018-Feb-12 12:31N 30°11' W 093°19'0 0.0
2018-Feb-12 11:56N 30°11' W 093°19'0 0.0
2018-Feb-12 11:27N 30°11' W 093°19'0 0.0
2018-Feb-12 10:56N 30°11' W 093°19'0 0.0
2018-Feb-12 10:29N 30°11' W 093°19'0 0.0
2018-Feb-12 09:50N 30°11' W 093°19'0 0.0
2018-Feb-12 09:20N 30°11' W 093°19'0 0.0
2018-Feb-12 08:38N 30°11' W 093°19'0 0.0
2018-Feb-12 08:26N 30°11' W 093°19'0 0.0
2018-Feb-12 07:44N 30°11' W 093°19'0 0.0
2018-Feb-12 07:26N 30°11' W 093°19'0 0.0
2018-Feb-12 06:56N 30°11' W 093°19'0 0.0
2018-Feb-12 06:14N 30°11' W 093°19'0 0.0
2018-Feb-12 05:47N 30°11' W 093°19'0 0.0
2018-Feb-12 05:29N 30°11' W 093°19'0 0.0
2018-Feb-12 04:50N 30°11' W 093°19'0 0.0
2018-Feb-12 04:26N 30°11' W 093°19'0 0.0
2018-Feb-12 03:56N 30°11' W 093°19'0 0.0
2018-Feb-12 03:26N 30°11' W 093°19'0 0.0
2018-Feb-12 02:56N 30°11' W 093°19'0 0.0
2018-Feb-12 02:26N 30°11' W 093°19'0 0.0
2018-Feb-12 01:50N 30°11' W 093°19'0 0.0
2018-Feb-12 01:29N 30°11' W 093°19'0 0.0
2018-Feb-12 00:59N 30°11' W 093°19'0 0.0
2018-Feb-12 00:29N 30°11' W 093°19'0 0.0
2018-Feb-11 23:59N 30°11' W 093°19'0 0.0
2018-Feb-11 23:29N 30°11' W 093°19'0 0.0
2018-Feb-11 22:59N 30°11' W 093°19'0 0.0
2018-Feb-11 22:29N 30°11' W 093°19'0 0.0
2018-Feb-11 21:53N 30°11' W 093°19'0 0.0
2018-Feb-11 21:20N 30°11' W 093°19'0 0.0
2018-Feb-11 20:50N 30°11' W 093°19'0 0.0
2018-Feb-11 20:23N 30°11' W 093°19'0 0.0
2018-Feb-11 19:56N 30°11' W 093°19'0 0.0
2018-Feb-11 19:26N 30°11' W 093°19'  

Dump ship's entire track history